Time;durP1;ratioP1;P1;durP2;ratioP2;P2;SDS_P1;SDS_P2;PMS_P1;PMS_P2;Temp;Humidity;BMP_temperature;BMP_pressure;BME280_temperature;BME280_humidity;BME280_pressure;Samples;Min_cycle;Max_cycle;Signal;HPM_P1;HPM_P2
2022/10/22 04:00:41;;;;;;;1.23;1.17;;;14.10;99.90;;;;;;5869784;23;20650;-67
2022/10/22 04:03:07;;;;;;;2.53;1.10;;;14.10;99.90;;;;;;4976289;28;20443;-68
2022/10/22 04:05:34;;;;;;;1.83;1.00;;;14.00;99.90;;;;;;4975493;28;20454;-67
2022/10/22 04:08:01;;;;;;;2.30;1.10;;;14.00;99.90;;;;;;4975597;28;20458;-66
2022/10/22 04:10:27;;;;;;;2.13;1.43;;;14.10;99.90;;;;;;4975590;28;20461;-67
2022/10/22 04:12:54;;;;;;;2.70;0.90;;;14.10;99.90;;;;;;4975800;28;20455;-67
2022/10/22 04:15:21;;;;;;;0.80;0.80;;;14.00;99.90;;;;;;4975722;28;20466;-67
2022/10/22 04:17:49;;;;;;;1.00;1.00;;;14.10;99.90;;;;;;4976280;28;20529;-67
2022/10/22 04:20:16;;;;;;;1.33;0.87;;;14.10;99.90;;;;;;4975350;28;20482;-67
2022/10/22 04:22:43;;;;;;;1.10;1.00;;;14.20;99.90;;;;;;4975899;28;20866;-67
2022/10/22 04:25:09;;;;;;;1.37;0.90;;;14.20;99.90;;;;;;4981876;28;20459;-67
2022/10/22 04:27:36;;;;;;;1.33;1.00;;;14.20;99.90;;;;;;4981710;28;20459;-67
2022/10/22 04:30:05;;;;;;;0.80;0.80;;;14.20;99.90;;;;;;4977305;28;20451;-67
2022/10/22 04:32:32;;;;;;;1.83;0.80;;;14.20;99.90;;;;;;4976277;28;20562;-67
2022/10/22 04:35:00;;;;;;;1.93;0.90;;;14.20;99.90;;;;;;4976419;28;20458;-66
2022/10/22 04:37:26;;;;;;;1.50;0.70;;;14.20;99.90;;;;;;4975885;28;20455;-66
2022/10/22 04:39:53;;;;;;;1.03;0.90;;;14.30;99.90;;;;;;4976061;28;20482;-66
2022/10/22 04:42:20;;;;;;;3.20;1.43;;;14.20;99.90;;;;;;4975736;28;20533;-66
2022/10/22 04:44:46;;;;;;;1.17;1.10;;;14.30;99.90;;;;;;4976834;28;20486;-67
2022/10/22 04:47:13;;;;;;;1.73;0.93;;;14.30;99.90;;;;;;4976158;28;20458;-67
2022/10/22 04:49:40;;;;;;;1.90;1.20;;;14.30;99.90;;;;;;4976173;28;20459;-67
2022/10/22 04:52:08;;;;;;;0.70;0.70;;;14.30;99.90;;;;;;4976832;28;20533;-66
2022/10/22 04:54:35;;;;;;;2.83;0.87;;;14.30;99.90;;;;;;4976054;28;20512;-66
2022/10/22 04:57:01;;;;;;;2.63;0.80;;;14.30;99.90;;;;;;4975308;28;20673;-66
2022/10/22 04:59:28;;;;;;;0.90;0.90;;;14.30;99.90;;;;;;4976811;28;20485;-66
2022/10/22 05:01:54;;;;;;;3.70;0.80;;;14.30;99.90;;;;;;4990034;28;20510;-67
2022/10/22 05:04:21;;;;;;;0.87;0.67;;;14.30;99.90;;;;;;4993447;28;20450;-66
2022/10/22 05:06:48;;;;;;;4.77;1.17;;;14.20;99.90;;;;;;4991791;28;20509;-66
2022/10/22 05:09:18;;;;;;;2.67;0.80;;;14.20;99.90;;;;;;4979335;28;20509;-67
2022/10/22 05:11:47;;;;;;;1.23;0.90;;;14.20;99.90;;;;;;4978546;28;20478;-66
2022/10/22 05:14:15;;;;;;;2.20;0.80;;;14.20;99.90;;;;;;4978859;28;20938;-67
2022/10/22 05:16:44;;;;;;;0.90;0.90;;;14.20;99.90;;;;;;4978628;28;20455;-67
2022/10/22 05:19:16;;;;;;;2.67;1.50;;;14.20;99.90;;;;;;4978397;28;20454;-66
2022/10/22 05:21:42;;;;;;;1.10;1.10;;;14.20;99.90;;;;;;4978769;28;20466;-66
2022/10/22 05:24:09;;;;;;;0.87;0.87;;;14.30;99.90;;;;;;4978099;28;20489;-66
2022/10/22 05:26:37;;;;;;;1.77;0.83;;;14.30;99.90;;;;;;4978407;28;20505;-66
2022/10/22 05:29:04;;;;;;;1.27;0.70;;;14.40;99.90;;;;;;4978551;28;20439;-67
2022/10/22 05:31:31;;;;;;;0.87;0.87;;;14.40;99.90;;;;;;4978536;28;20470;-66
2022/10/22 05:33:57;;;;;;;1.00;0.90;;;14.40;99.90;;;;;;4986336;28;20455;-67
2022/10/22 05:36:24;;;;;;;1.27;0.70;;;14.40;99.90;;;;;;4988632;28;20449;-67
2022/10/22 05:38:51;;;;;;;0.70;0.70;;;14.40;99.90;;;;;;4987469;28;20454;-66
2022/10/22 05:41:20;;;;;;;5.10;2.13;;;14.40;99.90;;;;;;4986435;28;20569;-66
2022/10/22 05:43:48;;;;;;;0.80;0.80;;;14.50;99.90;;;;;;4983854;28;20995;-67
2022/10/22 05:46:17;;;;;;;1.23;0.80;;;14.50;99.90;;;;;;4985661;28;20458;-66
2022/10/22 05:48:44;;;;;;;2.37;0.90;;;14.50;99.90;;;;;;4979556;28;20482;-66
2022/10/22 05:51:12;;;;;;;1.07;0.77;;;14.50;99.90;;;;;;4977882;28;20618;-66
2022/10/22 05:53:42;;;;;;;3.13;1.10;;;14.50;99.90;;;;;;4977969;28;20506;-66
2022/10/22 05:56:12;;;;;;;1.50;1.10;;;14.50;99.90;;;;;;4978902;28;20455;-66
2022/10/22 05:58:39;;;;;;;2.03;0.93;;;14.50;99.90;;;;;;4978613;28;20447;-66
2022/10/22 06:01:09;;;;;;;0.67;0.67;;;14.50;99.90;;;;;;4978609;28;20487;-65
2022/10/22 06:03:35;;;;;;;1.00;1.00;;;14.60;99.90;;;;;;4979293;28;20459;-67
2022/10/22 06:06:04;;;;;;;1.23;0.80;;;14.60;99.90;;;;;;4979974;28;20525;-67
2022/10/22 06:08:31;;;;;;;0.77;0.77;;;14.70;99.90;;;;;;4978981;28;20459;-66
2022/10/22 06:10:58;;;;;;;2.20;0.83;;;14.60;99.90;;;;;;4977700;28;20845;-66
2022/10/22 06:13:25;;;;;;;1.80;1.63;;;14.70;99.90;;;;;;4979462;28;20447;-66
2022/10/22 06:15:52;;;;;;;1.40;1.30;;;14.70;99.90;;;;;;4978382;28;20887;-66
2022/10/22 06:18:20;;;;;;;2.10;1.17;;;14.70;99.90;;;;;;4977983;28;20545;-66
2022/10/22 06:20:47;;;;;;;2.00;1.10;;;14.70;99.90;;;;;;4977535;28;20491;-66
2022/10/22 06:23:14;;;;;;;0.80;0.80;;;14.70;99.90;;;;;;4976606;28;20813;-65
2022/10/22 06:25:41;;;;;;;0.90;0.90;;;14.70;99.90;;;;;;4977590;28;20888;-67
2022/10/22 06:28:08;;;;;;;2.00;1.13;;;14.70;99.90;;;;;;4978730;28;20956;-66
2022/10/22 06:30:34;;;;;;;0.80;0.70;;;14.60;99.90;;;;;;4976961;28;20952;-67
2022/10/22 06:33:01;;;;;;;2.23;0.60;;;14.70;99.90;;;;;;4977702;28;20459;-66
2022/10/22 06:35:29;;;;;;;0.87;0.80;;;14.70;99.90;;;;;;4977838;28;20965;-66
2022/10/22 06:37:55;;;;;;;2.30;1.13;;;14.70;99.90;;;;;;4977681;28;20454;-65
2022/10/22 06:40:23;;;;;;;3.43;0.80;;;14.70;99.90;;;;;;4978711;28;20478;-66
2022/10/22 06:42:50;;;;;;;1.37;1.20;;;14.80;99.90;;;;;;4978663;28;20454;-69
2022/10/22 06:45:16;;;;;;;1.43;1.33;;;14.80;99.90;;;;;;4978743;28;20459;-68
2022/10/22 06:47:43;;;;;;;1.43;1.33;;;14.80;99.90;;;;;;4977922;28;20513;-65
2022/10/22 06:50:10;;;;;;;1.17;1.00;;;14.80;99.90;;;;;;4992040;28;20816;-69
2022/10/22 06:52:38;;;;;;;2.10;1.30;;;14.80;99.90;;;;;;4994913;28;20475;-66
2022/10/22 06:55:05;;;;;;;1.77;1.60;;;14.80;99.90;;;;;;4995242;28;20477;-67
2022/10/22 06:57:32;;;;;;;5.57;1.50;;;14.80;99.90;;;;;;4989659;28;20447;-66
2022/10/22 06:59:58;;;;;;;1.60;1.50;;;14.80;99.90;;;;;;4982078;28;20451;-67
2022/10/22 07:02:25;;;;;;;1.30;1.20;;;14.90;99.90;;;;;;4991021;28;20475;-67
2022/10/22 07:04:52;;;;;;;4.27;1.20;;;14.90;99.90;;;;;;4989699;28;20461;-67
2022/10/22 07:07:18;;;;;;;1.43;1.33;;;15.00;99.90;;;;;;4984753;28;20482;-66
2022/10/22 07:09:48;;;;;;;2.00;1.13;;;15.10;99.90;;;;;;4977900;28;20451;-66
2022/10/22 07:12:14;;;;;;;1.27;1.07;;;15.10;99.90;;;;;;4976774;28;20479;-66
2022/10/22 07:14:41;;;;;;;1.03;0.93;;;15.20;99.90;;;;;;4976462;28;21010;-67
2022/10/22 07:17:08;;;;;;;2.73;1.30;;;15.30;99.90;;;;;;4981752;28;20455;-67
2022/10/22 07:19:35;;;;;;;1.70;1.60;;;15.50;99.90;;;;;;4985473;28;20478;-66
2022/10/22 07:22:02;;;;;;;1.90;1.00;;;15.80;99.90;;;;;;4982236;28;20489;-66
2022/10/22 07:24:28;;;;;;;4.30;3.17;;;16.10;99.90;;;;;;4978645;28;20548;-65
2022/10/22 07:26:57;;;;;;;4.67;1.03;;;16.40;99.90;;;;;;4977504;28;20510;-67
2022/10/22 07:29:23;;;;;;;2.70;1.00;;;16.50;99.90;;;;;;4977624;28;20459;-67
2022/10/22 07:31:50;;;;;;;0.90;0.90;;;16.70;99.90;;;;;;4979639;28;20467;-67
2022/10/22 07:34:17;;;;;;;8.20;2.27;;;17.30;99.90;;;;;;4978948;28;20541;-66
2022/10/22 07:36:43;;;;;;;2.20;1.63;;;17.60;99.90;;;;;;4978798;28;21009;-68
2022/10/22 07:39:10;;;;;;;0.80;0.80;;;17.90;99.90;;;;;;4976520;28;20458;-66
2022/10/22 07:41:37;;;;;;;3.13;1.13;;;18.00;99.90;;;;;;4977194;28;20486;-66
2022/10/22 07:44:05;;;;;;;0.70;0.70;;;18.00;99.90;;;;;;4976932;28;20811;-67
2022/10/22 07:46:34;;;;;;;1.80;1.00;;;18.00;99.90;;;;;;4976545;28;20463;-67
2022/10/22 07:49:00;;;;;;;1.00;1.00;;;18.00;99.90;;;;;;4976867;28;20454;-67
2022/10/22 07:51:27;;;;;;;1.30;1.07;;;17.90;99.90;;;;;;4977489;28;20474;-67
2022/10/22 07:53:54;;;;;;;1.13;1.00;;;17.80;99.90;;;;;;4982533;28;20458;-66
2022/10/22 07:56:21;;;;;;;1.67;1.03;;;17.70;99.90;;;;;;4986510;28;20439;-67
2022/10/22 07:58:47;;;;;;;1.90;1.10;;;17.60;99.90;;;;;;4986232;28;20936;-67
2022/10/22 08:01:15;;;;;;;1.70;1.03;;;17.50;99.90;;;;;;4985552;28;20486;-66
2022/10/22 08:03:42;;;;;;;2.67;1.33;;;17.50;99.90;;;;;;4981299;28;20462;-65
2022/10/22 08:06:09;;;;;;;4.10;2.07;;;17.80;99.90;;;;;;4976956;28;20458;-67
2022/10/22 08:08:36;;;;;;;1.30;1.17;;;18.20;99.90;;;;;;4975994;28;20466;-66
2022/10/22 08:11:03;;;;;;;1.00;1.00;;;18.70;99.90;;;;;;4976250;28;21044;-67
2022/10/22 08:13:30;;;;;;;1.90;1.30;;;19.40;99.90;;;;;;4976762;28;20469;-66
2022/10/22 08:15:57;;;;;;;2.27;1.10;;;20.30;99.90;;;;;;4976479;28;20794;-67
2022/10/22 08:18:26;;;;;;;5.10;1.20;;;21.60;99.90;;;;;;4975769;28;20868;-66
2022/10/22 08:20:53;;;;;;;1.43;1.00;;;22.80;99.90;;;;;;4975669;28;20533;-65
2022/10/22 08:23:20;;;;;;;1.07;0.97;;;23.50;99.90;;;;;;4976891;28;20521;-66
2022/10/22 08:25:46;;;;;;;3.90;0.97;;;23.90;99.90;;;;;;4976069;28;20459;-66
2022/10/22 08:28:13;;;;;;;4.33;1.13;;;24.20;99.90;;;;;;4975822;28;20455;-66
2022/10/22 08:30:41;;;;;;;2.30;0.80;;;25.00;99.90;;;;;;4975972;28;20470;-65
2022/10/22 08:33:08;;;;;;;2.47;0.83;;;25.80;99.90;;;;;;4976495;28;20513;-66
2022/10/22 08:35:36;;;;;;;0.97;0.70;;;26.60;99.90;;;;;;4978810;28;20513;-66
2022/10/22 08:38:02;;;;;;;1.27;0.97;;;27.20;99.90;;;;;;4979475;28;20458;-66
2022/10/22 08:40:32;;;;;;;1.23;0.93;;;27.80;99.00;;;;;;4979381;28;20454;-66
2022/10/22 08:43:24;;;;;;;1.07;1.07;;;27.80;98.20;;;;;;4982623;28;20545;-67
2022/10/22 08:46:02;;;;;;;1.00;1.00;;;27.60;97.50;;;;;;4987799;28;20514;-67
2022/10/22 08:48:42;;;;;;;2.23;1.00;;;27.50;97.00;;;;;;4983225;28;20470;-66
2022/10/22 08:51:14;;;;;;;2.00;0.87;;;27.00;97.90;;;;;;4979522;28;20521;-66
2022/10/22 08:53:53;;;;;;;0.93;0.93;;;26.30;97.50;;;;;;4979270;28;20843;-69
2022/10/22 08:56:23;;;;;;;1.10;1.00;;;25.80;99.70;;;;;;4979426;28;20847;-67
2022/10/22 08:58:53;;;;;;;1.80;1.20;;;26.30;98.90;;;;;;4979043;28;20497;-66
2022/10/22 09:01:23;;;;;;;1.30;1.20;;;27.00;98.70;;;;;;4978868;28;20491;-67
2022/10/22 09:03:54;;;;;;;1.47;0.93;;;27.50;96.30;;;;;;4979268;28;20462;-70
2022/10/22 09:06:25;;;;;;;1.40;0.80;;;27.80;95.90;;;;;;4979059;28;20497;-67
2022/10/22 09:08:53;;;;;;;3.50;1.10;;;28.20;94.70;;;;;;4979843;28;20438;-67
2022/10/22 09:11:26;;;;;;;3.33;0.80;;;28.60;93.30;;;;;;4978632;28;20474;-67
2022/10/22 09:13:56;;;;;;;1.53;1.00;;;28.60;92.60;;;;;;4979688;28;20783;-67
2022/10/22 09:16:30;;;;;;;1.57;1.20;;;28.80;92.60;;;;;;4978772;28;20454;-66
2022/10/22 09:19:09;;;;;;;4.47;1.10;;;29.10;92.10;;;;;;4979086;28;20504;-67
2022/10/22 09:21:45;;;;;;;2.97;1.30;;;29.40;91.90;;;;;;4978493;28;20482;-66
2022/10/22 09:24:19;;;;;;;1.20;0.93;;;30.00;90.00;;;;;;4978250;28;20898;-66
2022/10/22 09:26:45;;;;;;;2.30;1.10;;;30.10;88.80;;;;;;4978425;28;20447;-69
2022/10/22 09:29:19;;;;;;;0.80;0.80;;;30.50;88.50;;;;;;4978306;28;20486;-67
2022/10/22 09:31:46;;;;;;;1.80;0.70;;;31.00;85.10;;;;;;4977815;28;20481;-68
2022/10/22 09:34:14;;;;;;;0.80;0.80;;;31.50;84.50;;;;;;4978177;28;20482;-67
2022/10/22 09:36:42;;;;;;;4.37;0.80;;;31.50;82.30;;;;;;4978288;28;20520;-67
2022/10/22 09:39:24;;;;;;;0.80;0.70;;;31.70;79.20;;;;;;4977919;28;20984;-68
2022/10/22 09:41:50;;;;;;;1.30;1.10;;;31.80;77.50;;;;;;4977794;28;21001;-68
2022/10/22 09:44:17;;;;;;;0.77;0.77;;;32.00;76.20;;;;;;4978107;28;20521;-68
2022/10/22 09:46:44;;;;;;;0.70;0.70;;;32.00;77.10;;;;;;4977814;28;20941;-67
2022/10/22 09:49:15;;;;;;;1.17;1.10;;;32.20;73.90;;;;;;4978010;28;20465;-68
2022/10/22 09:51:54;;;;;;;3.43;1.00;;;32.30;73.40;;;;;;4978115;28;20545;-68
2022/10/22 09:54:23;;;;;;;1.40;0.83;;;32.50;70.40;;;;;;4978496;28;20479;-66
2022/10/22 09:56:58;;;;;;;1.20;0.80;;;32.00;70.30;;;;;;4978452;28;20455;-67
2022/10/22 09:59:29;;;;;;;1.77;0.80;;;31.90;71.90;;;;;;4978188;28;20446;-68
2022/10/22 10:02:06;;;;;;;0.80;0.80;;;31.30;72.90;;;;;;4978276;28;20925;-67
2022/10/22 10:04:36;;;;;;;2.10;0.97;;;31.30;74.50;;;;;;4980757;28;20442;-68
2022/10/22 10:07:04;;;;;;;1.17;1.00;;;31.20;74.10;;;;;;4989988;28;20474;-67
2022/10/22 10:09:35;;;;;;;1.07;0.80;;;31.30;73.00;;;;;;4986506;28;20506;-69
2022/10/22 10:12:14;;;;;;;0.87;0.80;;;31.30;72.50;;;;;;4992859;28;20478;-68
2022/10/22 10:14:47;;;;;;;1.17;0.60;;;32.00;70.80;;;;;;4986562;28;20439;-67
2022/10/22 10:17:25;;;;;;;0.80;0.57;;;32.20;69.40;;;;;;4982070;28;20490;-68
2022/10/22 10:20:13;;;;;;;0.73;0.60;;;32.50;68.60;;;;;;4980575;28;20446;-68
2022/10/22 10:22:53;;;;;;;0.70;0.70;;;32.20;69.10;;;;;;4981087;28;20473;-67
2022/10/22 10:25:31;;;;;;;1.30;0.80;;;31.40;68.50;;;;;;4978984;28;20442;-68
2022/10/22 10:28:06;;;;;;;1.07;0.80;;;30.70;71.10;;;;;;4979208;28;20538;-68
2022/10/22 10:30:33;;;;;;;2.23;0.83;;;30.20;73.30;;;;;;4978301;28;20439;-68
2022/10/22 10:33:16;;;;;;;0.80;0.80;;;29.70;74.30;;;;;;4978486;28;20458;-67
2022/10/22 10:35:53;;;;;;;0.70;0.70;;;29.60;76.20;;;;;;4978421;28;20443;-68
2022/10/22 10:38:45;;;;;;;2.57;0.90;;;29.80;75.10;;;;;;4978236;28;20470;-68
2022/10/22 10:41:18;;;;;;;1.93;1.20;;;29.40;74.70;;;;;;4977972;28;20475;-68
2022/10/22 10:44:00;;;;;;;0.90;0.80;;;29.30;76.70;;;;;;4977826;28;20438;-69
2022/10/22 10:46:36;;;;;;;1.03;0.70;;;28.80;79.30;;;;;;4977943;28;20443;-67
2022/10/22 10:49:09;;;;;;;2.47;0.60;;;28.50;80.50;;;;;;4977173;28;20438;-68
2022/10/22 10:51:46;;;;;;;1.70;0.60;;;27.90;80.20;;;;;;4977119;28;20529;-68
2022/10/22 10:54:35;;;;;;;0.80;0.80;;;27.70;82.90;;;;;;4979570;28;20475;-67
2022/10/22 10:57:07;;;;;;;1.20;0.73;;;27.30;85.30;;;;;;4982154;28;20470;-67
2022/10/22 10:59:45;;;;;;;0.80;0.80;;;26.80;86.10;;;;;;4982315;28;20443;-67
2022/10/22 11:02:33;;;;;;;1.03;0.90;;;26.60;87.50;;;;;;4981591;28;20487;-67
2022/10/22 11:05:12;;;;;;;0.80;0.80;;;26.40;90.00;;;;;;4979473;28;20438;-67
2022/10/22 11:07:42;;;;;;;1.50;1.40;;;26.20;90.90;;;;;;4982305;28;20450;-67
2022/10/22 11:10:21;;;;;;;1.20;1.10;;;26.10;89.30;;;;;;4980331;28;20439;-66
2022/10/22 11:12:51;;;;;;;1.60;0.97;;;26.00;90.00;;;;;;4976798;28;20431;-68
2022/10/22 11:15:27;;;;;;;3.73;1.13;;;26.00;92.20;;;;;;4976175;28;20906;-68
2022/10/22 11:18:00;;;;;;;2.60;0.87;;;25.90;91.30;;;;;;4977530;28;20967;-68
2022/10/22 11:20:37;;;;;;;1.27;1.17;;;25.80;91.60;;;;;;4977853;28;20439;-67
2022/10/22 11:23:10;;;;;;;4.30;0.80;;;25.50;92.70;;;;;;4976512;28;20521;-68
2022/10/22 11:25:44;;;;;;;2.10;0.97;;;25.20;94.00;;;;;;4976519;28;20442;-68
2022/10/22 11:28:14;;;;;;;2.90;1.10;;;24.90;93.60;;;;;;4976352;28;20968;-69
2022/10/22 11:30:45;;;;;;;2.63;0.80;;;24.70;94.00;;;;;;4976201;28;20486;-68
2022/10/22 11:33:18;;;;;;;1.53;0.87;;;24.60;96.10;;;;;;4976843;28;20467;-68
2022/10/22 11:35:47;;;;;;;1.03;0.83;;;24.80;94.00;;;;;;4976291;28;20439;-68
2022/10/22 11:38:17;;;;;;;0.80;0.80;;;24.60;95.10;;;;;;4976486;28;20509;-68
2022/10/22 11:40:48;;;;;;;1.07;0.80;;;24.70;94.70;;;;;;4976553;28;20533;-68
2022/10/22 11:43:28;;;;;;;1.90;1.00;;;24.90;94.70;;;;;;4976432;28;20471;-69
2022/10/22 11:46:03;;;;;;;1.83;0.90;;;24.90;95.80;;;;;;4976036;28;20840;-68
2022/10/22 11:48:37;;;;;;;1.23;0.90;;;24.70;94.40;;;;;;4977050;28;20445;-68
2022/10/22 11:51:04;;;;;;;1.97;0.90;;;24.60;94.50;;;;;;4976215;28;20482;-69
2022/10/22 11:53:32;;;;;;;1.80;1.17;;;24.50;95.10;;;;;;4977019;28;20870;-69
2022/10/22 11:56:19;;;;;;;0.77;0.77;;;24.50;94.60;;;;;;4977003;28;20454;-68
2022/10/22 11:58:48;;;;;;;3.00;1.40;;;24.40;93.30;;;;;;4977350;28;20451;-68
2022/10/22 12:01:27;;;;;;;4.40;1.30;;;24.50;93.60;;;;;;4976211;28;20487;-70
2022/10/22 12:04:22;;;;;;;1.13;1.03;;;24.40;94.50;;;;;;4976701;28;20443;-69
2022/10/22 12:07:00;;;;;;;0.80;0.80;;;24.40;94.30;;;;;;4976021;28;20439;-69
2022/10/22 12:09:29;;;;;;;1.53;0.80;;;24.50;93.30;;;;;;4977818;28;20447;-69
2022/10/22 12:12:04;;;;;;;1.23;0.87;;;24.60;92.90;;;;;;4980764;28;20577;-69
2022/10/22 12:14:35;;;;;;;0.87;0.87;;;24.70;95.00;;;;;;4980213;28;20508;-68
2022/10/22 12:17:09;;;;;;;1.67;0.83;;;24.90;92.90;;;;;;4980900;28;20449;-69
2022/10/22 12:19:38;;;;;;;2.73;1.20;;;24.90;92.60;;;;;;4980676;28;20439;-69
2022/10/22 12:22:15;;;;;;;1.37;0.80;;;25.00;92.80;;;;;;4980638;28;20541;-69
2022/10/22 12:24:44;;;;;;;2.23;0.93;;;25.10;90.90;;;;;;4981513;28;20442;-68
2022/10/22 12:27:21;;;;;;;2.37;0.80;;;25.10;91.50;;;;;;4984285;28;20442;-69
2022/10/22 12:29:48;;;;;;;1.43;0.70;;;25.00;84.30;;;;;;4999679;28;20419;-69
2022/10/22 12:32:16;;;;;;;0.50;0.50;;;25.00;87.60;;;;;;5000067;28;20467;-69
2022/10/22 12:34:46;;;;;;;0.87;0.80;;;25.00;88.10;;;;;;4999146;28;20458;-68
2022/10/22 12:37:15;;;;;;;3.50;1.20;;;24.80;88.00;;;;;;4986952;28;20513;-68
2022/10/22 12:39:41;;;;;;;1.07;0.90;;;24.70;87.70;;;;;;4991259;28;20475;-68
2022/10/22 12:42:13;;;;;;;2.20;0.90;;;24.60;90.30;;;;;;4990852;28;20871;-68
2022/10/22 12:44:41;;;;;;;2.07;1.17;;;24.60;90.90;;;;;;4989445;28;20450;-69
2022/10/22 12:47:11;;;;;;;1.80;0.90;;;24.60;90.90;;;;;;4981071;28;20459;-68
2022/10/22 12:49:42;;;;;;;6.50;1.37;;;24.50;90.00;;;;;;4980255;28;20470;-68
2022/10/22 12:52:15;;;;;;;2.43;0.80;;;24.30;90.50;;;;;;4980704;28;20470;-69
2022/10/22 12:54:44;;;;;;;1.90;1.10;;;24.30;90.60;;;;;;4979523;28;20447;-69
2022/10/22 12:57:14;;;;;;;2.47;1.50;;;24.20;89.50;;;;;;4979262;28;21036;-68
2022/10/22 12:59:44;;;;;;;3.57;1.07;;;24.10;90.70;;;;;;4978663;28;20925;-69
2022/10/22 13:02:17;;;;;;;1.17;1.07;;;24.10;90.30;;;;;;4980159;28;20486;-68
2022/10/22 13:05:13;;;;;;;1.17;1.00;;;24.10;93.60;;;;;;4990560;28;20461;-68
2022/10/22 13:07:43;;;;;;;1.70;0.97;;;24.20;91.80;;;;;;4988256;28;20466;-68
2022/10/22 13:10:18;;;;;;;1.63;0.90;;;24.20;91.40;;;;;;4983681;28;20504;-68
2022/10/22 13:12:50;;;;;;;2.20;0.80;;;24.20;91.90;;;;;;4981637;28;20462;-68
2022/10/22 13:15:33;;;;;;;0.87;0.73;;;24.20;90.10;;;;;;4980485;28;20515;-67
2022/10/22 13:18:05;;;;;;;2.00;0.80;;;24.00;90.50;;;;;;4979456;28;20498;-68
2022/10/22 13:20:36;;;;;;;3.57;1.70;;;23.90;91.10;;;;;;4978788;28;20458;-68
2022/10/22 13:23:04;;;;;;;2.10;1.43;;;23.80;91.20;;;;;;4979336;28;20987;-68
2022/10/22 13:25:32;;;;;;;0.80;0.80;;;23.80;92.00;;;;;;4979946;28;20454;-68
2022/10/22 13:28:02;;;;;;;1.90;0.83;;;23.70;91.60;;;;;;4979245;28;20486;-68
2022/10/22 13:30:33;;;;;;;0.80;0.80;;;23.70;92.30;;;;;;4978884;28;20442;-69
2022/10/22 13:33:02;;;;;;;2.83;1.20;;;23.80;92.60;;;;;;4978547;28;20972;-68
2022/10/22 13:35:32;;;;;;;2.63;1.03;;;23.90;93.40;;;;;;4978602;28;20454;-68
2022/10/22 13:37:59;;;;;;;2.50;0.90;;;23.90;92.50;;;;;;4978147;28;21000;-68
2022/10/22 13:40:26;;;;;;;4.23;1.43;;;23.90;92.10;;;;;;4978259;28;20951;-68
2022/10/22 13:42:52;;;;;;;1.90;0.97;;;23.90;93.30;;;;;;4979227;28;20482;-69
2022/10/22 13:45:19;;;;;;;0.87;0.80;;;23.80;92.70;;;;;;4978671;28;20464;-68
2022/10/22 13:47:51;;;;;;;3.67;0.90;;;23.80;93.90;;;;;;4978205;28;20505;-68
2022/10/22 13:50:19;;;;;;;2.23;0.80;;;23.90;93.60;;;;;;4978159;28;20443;-67
2022/10/22 13:52:49;;;;;;;3.33;0.90;;;23.90;94.30;;;;;;4977948;28;20998;-68
2022/10/22 13:55:19;;;;;;;1.90;1.10;;;23.90;94.40;;;;;;4978229;28;20439;-67
2022/10/22 13:57:46;;;;;;;2.10;1.70;;;23.90;94.30;;;;;;4978155;28;20482;-68
2022/10/22 14:00:16;;;;;;;1.37;1.27;;;23.90;92.70;;;;;;4977747;28;21005;-69
2022/10/22 14:02:43;;;;;;;7.20;1.00;;;23.90;92.00;;;;;;4978175;28;20513;-67
2022/10/22 14:05:11;;;;;;;1.83;1.13;;;23.90;92.30;;;;;;4977871;28;20455;-68
2022/10/22 14:07:39;;;;;;;7.27;1.03;;;23.90;92.10;;;;;;4977743;28;20817;-67
2022/10/22 14:10:16;;;;;;;2.10;1.00;;;23.90;92.20;;;;;;4978036;28;20534;-68
2022/10/22 14:12:43;;;;;;;4.27;0.83;;;23.80;93.40;;;;;;4977752;28;20906;-68
2022/10/22 14:15:12;;;;;;;1.57;1.00;;;23.90;93.30;;;;;;4977292;28;20942;-68
2022/10/22 14:17:41;;;;;;;2.00;1.00;;;23.90;91.40;;;;;;4977930;28;20868;-68
2022/10/22 14:20:17;;;;;;;3.67;1.20;;;23.90;91.50;;;;;;4977507;28;20466;-68
2022/10/22 14:22:44;;;;;;;1.63;1.20;;;23.80;92.60;;;;;;4977159;28;20470;-68
2022/10/22 14:25:14;;;;;;;0.90;0.90;;;23.70;93.00;;;;;;4977391;28;20455;-68
2022/10/22 14:27:41;;;;;;;2.23;1.17;;;23.70;94.10;;;;;;4978168;28;20447;-69
2022/10/22 14:30:09;;;;;;;1.10;1.03;;;23.60;93.00;;;;;;4977652;28;20455;-67
2022/10/22 14:32:36;;;;;;;1.20;1.00;;;23.60;92.40;;;;;;4976299;28;20485;-67
2022/10/22 14:35:03;;;;;;;1.53;1.20;;;23.50;92.00;;;;;;4977411;28;20532;-68
2022/10/22 14:37:31;;;;;;;4.33;1.57;;;23.50;93.00;;;;;;4977348;28;20813;-68
2022/10/22 14:40:01;;;;;;;2.40;1.10;;;23.40;92.70;;;;;;4977562;28;20517;-68
2022/10/22 14:42:28;;;;;;;3.00;1.93;;;23.40;92.90;;;;;;4983857;28;20506;-68
2022/10/22 14:44:55;;;;;;;1.30;0.90;;;23.40;93.90;;;;;;4989068;28;20454;-68
2022/10/22 14:47:21;;;;;;;1.73;1.50;;;23.20;93.80;;;;;;4982599;28;20458;-68
2022/10/22 14:49:48;;;;;;;1.70;0.93;;;23.10;94.30;;;;;;4977562;28;20466;-68
2022/10/22 14:52:14;;;;;;;1.50;1.07;;;23.00;93.70;;;;;;4977110;28;20479;-68
2022/10/22 14:54:43;;;;;;;1.17;0.80;;;22.80;93.70;;;;;;4976953;28;20466;-68
2022/10/22 14:57:13;;;;;;;1.63;1.10;;;22.80;94.60;;;;;;4976577;28;20842;-68
2022/10/22 14:59:40;;;;;;;2.93;1.23;;;22.70;95.20;;;;;;4976885;28;20443;-67
2022/10/22 15:02:09;;;;;;;1.10;1.10;;;22.50;95.40;;;;;;4980797;28;20889;-67
2022/10/22 15:04:36;;;;;;;4.10;1.10;;;22.40;96.20;;;;;;4976820;28;20475;-67
2022/10/22 15:07:03;;;;;;;1.50;1.30;;;22.30;96.10;;;;;;4976444;28;20970;-67
2022/10/22 15:09:30;;;;;;;1.20;0.93;;;22.10;96.20;;;;;;4976743;28;20454;-67
2022/10/22 15:11:58;;;;;;;2.30;1.03;;;22.00;96.90;;;;;;4976704;28;20893;-67
2022/10/22 15:14:24;;;;;;;1.93;1.73;;;21.90;96.90;;;;;;4976652;28;20447;-68
2022/10/22 15:16:51;;;;;;;1.97;1.53;;;21.80;97.10;;;;;;4976433;28;20522;-67
2022/10/22 15:19:18;;;;;;;2.00;1.70;;;21.70;97.70;;;;;;4977105;28;20477;-67
2022/10/22 15:21:45;;;;;;;2.83;1.67;;;21.60;95.90;;;;;;4974712;28;20846;-67
2022/10/22 15:24:12;;;;;;;4.73;1.73;;;21.60;96.70;;;;;;4976521;28;20495;-67
2022/10/22 15:26:38;;;;;;;1.87;1.50;;;21.50;96.70;;;;;;4976876;28;20459;-67
2022/10/22 15:29:06;;;;;;;3.83;1.30;;;21.30;96.30;;;;;;4976846;28;20458;-68
2022/10/22 15:31:46;;;;;;;1.70;1.60;;;21.30;97.10;;;;;;4976833;28;20478;-68
2022/10/22 15:34:13;;;;;;;5.60;2.00;;;21.10;97.10;;;;;;4976819;28;20457;-68
2022/10/22 15:36:40;;;;;;;12.57;2.10;;;21.00;97.60;;;;;;4976433;28;20511;-68
2022/10/22 15:39:09;;;;;;;7.73;2.20;;;21.00;98.00;;;;;;4976683;28;20815;-68
2022/10/22 15:41:36;;;;;;;3.00;1.67;;;20.90;98.70;;;;;;4976305;28;20474;-67
2022/10/22 15:44:04;;;;;;;2.13;1.77;;;20.90;98.60;;;;;;4976017;28;20499;-67
2022/10/22 15:46:33;;;;;;;5.00;2.10;;;20.80;98.80;;;;;;4976315;28;20458;-67
2022/10/22 15:49:00;;;;;;;3.27;2.80;;;20.80;98.50;;;;;;4976196;28;20855;-67
2022/10/22 15:51:27;;;;;;;9.80;6.13;;;20.70;99.30;;;;;;4976013;28;20514;-67
2022/10/22 15:53:55;;;;;;;6.07;4.97;;;20.60;99.50;;;;;;4976013;28;20477;-68
2022/10/22 15:56:23;;;;;;;5.57;3.90;;;20.50;99.80;;;;;;4981842;28;20450;-68
2022/10/22 15:58:53;;;;;;;4.40;4.00;;;20.50;99.90;;;;;;4987488;28;20458;-68
2022/10/22 16:01:20;;;;;;;5.67;3.70;;;20.40;99.90;;;;;;4981916;28;20540;-67
2022/10/22 16:03:51;;;;;;;4.33;3.63;;;20.40;99.90;;;;;;4978193;28;20482;-67
2022/10/22 16:06:18;;;;;;;3.57;3.27;;;20.40;99.90;;;;;;4976838;28;20463;-67
2022/10/22 16:08:45;;;;;;;3.80;3.40;;;20.30;99.90;;;;;;4977723;28;20502;-67
2022/10/22 16:11:13;;;;;;;3.13;2.77;;;20.30;99.90;;;;;;4976894;28;20522;-67
2022/10/22 16:13:39;;;;;;;2.97;2.77;;;20.20;99.90;;;;;;4976534;28;20461;-66
2022/10/22 16:16:07;;;;;;;3.03;2.03;;;20.10;99.90;;;;;;4977284;28;20458;-67
2022/10/22 16:18:34;;;;;;;2.20;2.00;;;20.00;99.90;;;;;;4976669;28;20497;-68
2022/10/22 16:21:02;;;;;;;2.77;2.50;;;20.00;99.90;;;;;;4976182;28;20537;-67
2022/10/22 16:23:28;;;;;;;2.93;2.13;;;19.90;99.90;;;;;;4976162;28;20483;-67
2022/10/22 16:25:55;;;;;;;3.33;2.23;;;19.80;99.90;;;;;;4975671;28;20471;-67
2022/10/22 16:28:22;;;;;;;3.20;1.60;;;19.70;99.90;;;;;;4976306;28;20490;-68
2022/10/22 16:30:49;;;;;;;4.83;1.47;;;19.60;99.90;;;;;;4975879;28;20474;-68
2022/10/22 16:33:15;;;;;;;4.00;1.47;;;19.60;99.90;;;;;;4975838;28;20458;-67
2022/10/22 16:35:42;;;;;;;1.60;1.50;;;19.50;99.90;;;;;;4975891;28;20462;-67
2022/10/22 16:38:11;;;;;;;4.33;2.30;;;19.50;99.90;;;;;;4975768;28;20455;-67
2022/10/22 16:40:38;;;;;;;8.97;4.10;;;19.40;99.90;;;;;;4977551;28;20455;-68
2022/10/22 16:43:05;;;;;;;2.77;1.67;;;19.40;99.90;;;;;;4977063;28;20459;-67
2022/10/22 16:45:32;;;;;;;2.07;1.27;;;19.30;99.90;;;;;;4976529;28;20954;-67
2022/10/22 16:47:59;;;;;;;4.77;2.13;;;19.20;99.90;;;;;;4975643;28;20462;-67
2022/10/22 16:50:25;;;;;;;3.67;2.77;;;19.20;99.90;;;;;;4975354;28;20465;-67
2022/10/22 16:52:52;;;;;;;3.30;2.37;;;19.20;99.90;;;;;;4975563;28;20886;-68
2022/10/22 16:55:20;;;;;;;8.63;2.50;;;19.10;99.90;;;;;;4976833;28;20878;-68
2022/10/22 16:57:50;;;;;;;3.10;2.20;;;19.10;99.90;;;;;;4979543;28;20509;-68
2022/10/22 17:00:18;;;;;;;3.30;2.40;;;19.00;99.90;;;;;;4978899;28;20529;-68